This is the latest recevied weather packets stored in our database for station/object N5LSN. If no packets are shown the sender has not sent any weather packets the latest 10 day(s).
| Time | Temp. | Humidity | Pressure | Rain* | Wind** | Luminosity | Snow |
|---|---|---|---|---|---|---|---|
| 1777587103 | 17.78° C | 64% | 1015.5 hPa | 0 mm | - | 202 W/m² | - |
| 1777586799 | 17.78° C | 63% | 1015.2 hPa | 0 mm | - | 193 W/m² | - |
| 1777586494 | 17.78° C | 64% | 1015.4 hPa | 0 mm | - | 183 W/m² | - |
| 1777586189 | 17.78° C | 64% | 1015.4 hPa | 0 mm | - | 199 W/m² | - |
| 1777585888 | 17.78° C | 62% | 1015.2 hPa | 0 mm | - | 252 W/m² | - |
| 1777585588 | 17.78° C | 62% | 1015.5 hPa | 0 mm | - | 241 W/m² | - |
| 1777585284 | 18.33° C | 64% | 1015.5 hPa | 0 mm | - | 236 W/m² | - |
| 1777584978 | 18.33° C | 65% | 1015.5 hPa | 0 mm | - | 219 W/m² | - |
| 1777584676 | 17.78° C | 63% | 1015.5 hPa | 0 mm | - | 218 W/m² | - |
| 1777584373 | 18.33° C | 63% | 1015.5 hPa | 0 mm | - | 209 W/m² | - |
| 1777584069 | 18.33° C | 63% | 1015.6 hPa | 0 mm | - | 231 W/m² | - |
| 1777583763 | 18.33° C | 63% | 1015.7 hPa | 0 mm | - | 227 W/m² | - |
| 1777583463 | 18.33° C | 61% | 1015.8 hPa | 0 mm | - | 253 W/m² | - |
| 1777583156 | 18.33° C | 61% | 1015.9 hPa | 0 mm | - | 265 W/m² | - |
| 1777582852 | 18.33° C | 62% | 1016.1 hPa | 0 mm | - | 314 W/m² | - |
| 1777582550 | 17.78° C | 61% | 1016.3 hPa | 0 mm | - | 313 W/m² | - |
| 1777582245 | 18.33° C | 59% | 1016.2 hPa | 0 mm | - | 340 W/m² | - |
| 1777581943 | 18.89° C | 60% | 1016.3 hPa | 0 mm | - | 273 W/m² | - |
| 1777581638 | 18.33° C | 59% | 1016.6 hPa | 0 mm | - | 329 W/m² | - |
| 1777581332 | 18.33° C | 61% | 1016.4 hPa | 0 mm | - | 175 W/m² | - |
| 1777581027 | 18.33° C | 59% | 1016.5 hPa | 0 mm | - | 367 W/m² | - |
| 1777580727 | 18.33° C | 60% | 1016.6 hPa | 0 mm | - | 353 W/m² | - |
| 1777580424 | 17.78° C | 61% | 1016.5 hPa | 0 mm | - | 373 W/m² | - |
| 1777580119 | 18.33° C | 64% | 1016.7 hPa | 0 mm | - | 323 W/m² | - |
| 1777579816 | 18.33° C | 64% | 1016.8 hPa | 0 mm | - | 300 W/m² | - |
* Rain latest hour (hover to see other rain measurements)
** Current wind speed in m/s (hover to see current wind gust speed)